| time (UTC) | temp C | wind direction | speed KPH | gust KPH | rain 1hr cm | rain 24hr cm | rain mn cm | humidity % | barometer mb |
| 20260507191506 | 17 | 217 | 4.8 | 17.7 | 0.00 | 0.84 | 0.74 | 34 | 1005.4 |
| 20260507190012 | 17 | 65 | 4.8 | 12.9 | 0.00 | 0.84 | 0.74 | 28 | 1005.6 |
| 20260507181506 | 17 | 12 | 4.8 | 17.7 | 0.00 | 0.84 | 0.74 | 36 | 1006.0 |
| 20260507180026 | 17 | 227 | 4.8 | 17.7 | 0.00 | 0.84 | 0.74 | 36 | 1006.0 |
| 20260507174507 | 17 | 284 | 4.8 | 12.9 | 0.00 | 0.84 | 0.74 | 41 | 1006.1 |
| 20260507173007 | 17 | 67 | 4.8 | 19.3 | 0.00 | 0.84 | 0.74 | 39 | 1006.1 |
| 20260507171508 | 17 | 360 | 4.8 | 20.9 | 0.00 | 0.84 | 0.74 | 43 | 1006.3 |
| 20260507170009 | 16 | 191 | 4.8 | 27.4 | 0.00 | 0.84 | 0.74 | 42 | 1006.4 |
| 20260507164508 | 17 | 332 | 4.8 | 25.7 | 0.00 | 0.84 | 0.74 | 43 | 1006.6 |
| 20260507163007 | 16 | 329 | 3.2 | 14.5 | 0.00 | 0.84 | 0.74 | 48 | 1006.7 |
| 20260507160022 | 16 | 331 | 3.2 | 14.5 | 0.00 | 0.84 | 0.74 | 54 | 1007.0 |
| 20260507154508 | 15 | 275 | 4.8 | 16.1 | 0.00 | 0.84 | 0.74 | 55 | 1007.2 |
| 20260507153007 | 14 | 258 | 4.8 | 19.3 | 0.00 | 0.84 | 0.74 | 56 | 1007.5 |
| 20260507150018 | 15 | 234 | 3.2 | 17.7 | 0.00 | 0.84 | 0.74 | 64 | 1007.5 |
| 20260507143007 | 13 | 277 | 3.2 | 8.0 | 0.00 | 0.84 | 0.74 | 68 | 1007.9 |
| 20260507141508 | 13 | 13 | 3.2 | 11.3 | 0.00 | 0.84 | 0.74 | 71 | 1007.9 |
| 20260507140009 | 13 | 69 | 1.6 | 14.5 | 0.00 | 0.84 | 0.74 | 70 | 1007.9 |
| 20260507134507 | 12 | 23 | 3.2 | 12.9 | 0.00 | 0.84 | 0.74 | 77 | 1008.0 |
| 20260507133007 | 12 | 32 | 1.6 | 8.0 | 0.00 | 0.84 | 0.74 | 81 | 1008.1 |
| 20260507131506 | 11 | 279 | 1.6 | 6.4 | 0.00 | 0.84 | 0.74 | 89 | 1008.0 |
| 20260507130009 | 10 | 360 | 3.2 | 14.5 | 0.00 | 0.84 | 0.74 | 92 | 1008.2 |
| 20260507124509 | 10 | 269 | 1.6 | 6.4 | 0.00 | 0.84 | 0.74 | 95 | 1008.1 |
| 20260507123008 | 9 | 333 | 1.6 | 6.4 | 0.00 | 0.84 | 0.74 | 96 | 1008.2 |
| 20260507121506 | 9 | 245 | 1.6 | 6.4 | 0.00 | 0.84 | 0.74 | 96 | 1008.6 |
| 20260507120009 | 8 | 257 | 1.6 | 6.4 | 0.00 | 0.84 | 0.74 | 96 | 1007.9 |
| 20260507114506 | 8 | 265 | 0.0 | 6.4 | 0.00 | 0.84 | 0.74 | 96 | 1007.9 |
| 20260507113006 | 8 | 267 | 0.0 | 0.0 | 0.05 | 0.84 | 0.74 | 96 | 1008.1 |
| 20260507111509 | 8 | 289 | 0.0 | 0.0 | 0.18 | 0.84 | 0.74 | 95 | 1007.8 |
| 20260507110008 | 8 | 223 | 0.0 | 0.0 | 0.23 | 0.84 | 0.74 | 95 | 1007.7 |
| 20260507104506 | 8 | 339 | 0.0 | 0.0 | 0.25 | 0.84 | 0.74 | 95 | 1007.7 |
| 20260507100007 | 8 | 277 | 0.0 | 3.2 | 0.10 | 0.61 | 0.51 | 94 | 1007.8 |
| 20260507094505 | 8 | 313 | 0.0 | 3.2 | 0.13 | 0.58 | 0.48 | 93 | 1007.4 |
| 20260507093006 | 8 | 138 | 0.0 | 4.8 | 0.13 | 0.53 | 0.43 | 92 | 1007.5 |
| 20260507090008 | 9 | 344 | 0.0 | 0.0 | 0.20 | 0.51 | 0.41 | 93 | 1007.0 |
| 20260507084505 | 9 | 257 | 0.0 | 1.6 | 0.20 | 0.46 | 0.36 | 92 | 1007.3 |
| 20260507081505 | 10 | 317 | 1.6 | 12.9 | 0.25 | 0.38 | 0.28 | 91 | 1006.9 |
| 20260507080008 | 11 | 255 | 0.0 | 4.8 | 0.18 | 0.30 | 0.20 | 90 | 1007.4 |
| 20260507073007 | 12 | 246 | 1.6 | 12.9 | 0.00 | 0.13 | 0.03 | 84 | 1006.9 |
| 20260507071507 | 12 | 270 | 1.6 | 12.9 | 0.00 | 0.13 | 0.03 | 85 | 1006.0 |
| 20260507070011 | 12 | 335 | 1.6 | 8.0 | 0.00 | 0.13 | 0.03 | 87 | 1005.8 |
| 20260507064506 | 13 | 298 | 0.0 | 3.2 | 0.00 | 0.13 | 0.03 | 89 | 1006.0 |
| 20260507063006 | 13 | 323 | 1.6 | 4.8 | 0.00 | 0.13 | 0.03 | 89 | 1006.2 |
| 20260507061507 | 13 | 299 | 1.6 | 9.7 | 0.03 | 0.13 | 0.03 | 90 | 1006.0 |
| 20260507060008 | 13 | 294 | 1.6 | 8.0 | 0.03 | 0.13 | 0.03 | 90 | 1006.2 |
| 20260507054506 | 13 | 313 | 1.6 | 8.0 | 0.03 | 0.13 | 0.03 | 91 | 1006.4 |
| 20260507053006 | 14 | 302 | 1.6 | 11.3 | 0.03 | 0.13 | 0.03 | 92 | 1006.4 |
| 20260507051509 | 14 | 267 | 1.6 | 11.3 | 0.00 | 0.10 | 0.00 | 92 | 1006.4 |
| 20260507050010 | 14 | 254 | 3.2 | 14.5 | 0.00 | 0.10 | 0.00 | 93 | 1006.5 |
| 20260507044509 | 14 | 340 | 0.0 | 3.2 | 0.00 | 0.10 | 0.00 | 94 | 1006.4 |
| 20260507043008 | 14 | 273 | 0.0 | 3.2 | 0.00 | 0.10 | 0.00 | 94 | 1006.4 |
| 20260507041508 | 14 | 209 | 0.0 | 3.2 | 0.00 | 0.10 | 0.00 | 94 | 1006.4 |
| 20260507040024 | 14 | 263 | 0.0 | 3.2 | 0.00 | 0.10 | 0.00 | 94 | 1006.5 |
| 20260507034508 | 14 | 251 | 0.0 | 4.8 | 0.00 | 0.10 | 0.10 | 94 | 1006.5 |
| 20260507033008 | 14 | 224 | 1.6 | 8.0 | 0.00 | 0.10 | 0.10 | 94 | 1006.5 |
| 20260507031508 | 14 | 202 | 1.6 | 14.5 | 0.00 | 0.10 | 0.10 | 94 | 1006.3 |
| 20260507030012 | 13 | 213 | 1.6 | 14.5 | 0.00 | 0.10 | 0.10 | 94 | 1006.2 |
| 20260507024508 | 13 | 261 | 3.2 | 11.3 | 0.00 | 0.10 | 0.10 | 94 | 1006.0 |
| 20260507021508 | 13 | 227 | 1.6 | 9.7 | 0.00 | 0.10 | 0.10 | 94 | 1006.1 |
| 20260507014507 | 13 | 225 | 3.2 | 16.1 | 0.00 | 0.10 | 0.10 | 94 | 1006.3 |
| 20260507013007 | 13 | 196 | 3.2 | 14.5 | 0.00 | 0.10 | 0.10 | 95 | 1006.5 |
| 20260507011507 | 13 | 190 | 3.2 | 8.0 | 0.00 | 0.10 | 0.10 | 95 | 1006.7 |
| 20260507010011 | 13 | 219 | 1.6 | 12.9 | 0.00 | 0.10 | 0.10 | 95 | 1006.8 |
| 20260507004508 | 13 | 272 | 3.2 | 12.9 | 0.00 | 0.10 | 0.10 | 94 | 1006.7 |
| 20260507003007 | 13 | 184 | 4.8 | 14.5 | 0.00 | 0.10 | 0.10 | 94 | 1006.5 |
| 20260507001506 | 13 | 217 | 4.8 | 14.5 | 0.00 | 0.10 | 0.10 | 94 | 1006.5 |
| 20260507000010 | 13 | 202 | 4.8 | 16.1 | 0.00 | 0.10 | 0.10 | 94 | 1006.5 |
| 20260506234513 | 13 | 229 | 4.8 | 16.1 | 0.00 | 0.10 | 0.10 | 94 | 1006.4 |
| 20260506233007 | 13 | 208 | 6.4 | 14.5 | 0.00 | 0.10 | 0.10 | 93 | 1006.4 |
| 20260506231507 | 13 | 204 | 4.8 | 17.7 | 0.03 | 0.10 | 0.10 | 93 | 1006.5 |
| 20260506224507 | 13 | 195 | 3.2 | 12.9 | 0.05 | 0.10 | 0.10 | 93 | 1006.5 |
| 20260506223007 | 13 | 225 | 3.2 | 11.3 | 0.05 | 0.10 | 0.10 | 93 | 1006.4 |
| 20260506221508 | 14 | 184 | 4.8 | 20.9 | 0.03 | 0.08 | 0.08 | 92 | 1006.8 |
| 20260506220011 | 14 | 231 | 4.8 | 11.3 | 0.03 | 0.08 | 0.08 | 91 | 1006.9 |
| 20260506214507 | 15 | 236 | 4.8 | 14.5 | 0.03 | 0.05 | 0.05 | 91 | 1006.9 |
| 20260506213008 | 15 | 257 | 4.8 | 17.7 | 0.03 | 0.05 | 0.05 | 90 | 1007.1 |
| 20260506211508 | 15 | 226 | 4.8 | 17.7 | 0.03 | 0.05 | 0.05 | 91 | 1007.3 |
| 20260506210010 | 15 | 209 | 4.8 | 14.5 | 0.05 | 0.05 | 0.05 | 90 | 1007.2 |
| 20260506204507 | 15 | 219 | 6.4 | 17.7 | 0.03 | 0.03 | 0.03 | 89 | 1007.4 |
| 20260506203007 | 15 | 198 | 3.2 | 12.9 | 0.03 | 0.03 | 0.03 | 87 | 1007.5 |
| 20260506201508 | 16 | 249 | 3.2 | 16.1 | 0.03 | 0.03 | 0.03 | 86 | 1007.6 |
| 20260506194508 | 16 | 211 | 4.8 | 11.3 | 0.00 | 0.00 | 0.00 | 80 | 1007.5 |
| 20260506193007 | 17 | 241 | 4.8 | 17.7 | 0.00 | 0.00 | 0.00 | 76 | 1007.7 |